Latest Coastal Weather Observations for Point Fawcett

IDD60701

Issued at 12:31 am CST Monday 27 May 2024 (issued every 10 minutes, with the page automatically refreshed every 10 minutes)

About coastal observations | Map of coastal stations | Coastal observations for NT | Marine services | Other Formats
Station Details ID: 200731 Name: POINT FAWCETT Lat: -11.76 Lon: 130.03 Height: 6.5 m
Data from the previous 72 hours. | See also: Recent months at Point Fawcett
Date/Time
CST
Wind Sea
Height
m
Swell Vis
km
Cloud Weather Temp
°C
Press
MSL
hPa
Rain since
9am
mm
Dir  Spd
kts
Gust
kts
Height
m
Period
s
Dir
27/12:30am SE 5 6 - - - - - - - 22.9 1012.5 0.0
27/12:00am ENE 3 4 - - - - - - - 23.0 1012.5 0.0
 
Date/Time
CST
Wind Sea
Height
m
Swell Vis
km
Cloud Weather Temp
°C
Press
MSL
hPa
Rain since
9am
mm
Dir  Spd
kts
Gust
kts
Height
m
Period
s
Dir
26/11:30pm CALM 0 0 - - - - - - - 22.9 1012.6 0.0
26/11:00pm CALM 0 0 - - - - - - - 23.2 1012.9 0.0
26/10:30pm ENE 2 4 - - - - - - - 23.3 1013.1 0.0
26/10:00pm ENE 4 4 - - - - - - - 23.5 1013.3 0.0
26/09:30pm ENE 4 4 - - - - - - - 23.8 1013.2 0.0
26/09:00pm ENE 4 4 - - - - - - - 24.8 1013.2 0.0
26/08:30pm ENE 5 6 - - - - - - - 26.5 1013.2 0.0
26/08:00pm E 5 6 - - - - - - - 26.5 1012.8 0.0
26/07:30pm ESE 5 6 - - - - - - - 26.2 1012.5 0.0
26/07:00pm ESE 4 6 - - - - - - - 26.6 1012.1 0.0
26/06:30pm ESE 4 5 - - - - - - - 27.7 1011.8 0.0
26/06:00pm ESE 4 6 - - - - - - - 28.9 1011.5 0.0
26/05:30pm ESE 4 7 - - - - - - - 29.6 1011.3 0.0
26/05:00pm ESE 6 9 - - - - - - - 30.4 1011.0 0.0
26/04:30pm ESE 7 11 - - - - - - - 31.8 1010.8 0.0
26/04:00pm ESE 7 11 - - - - - - - 31.7 1010.8 0.0
26/03:30pm ESE 7 14 - - - - - - - 31.9 1011.0 0.0
26/03:00pm E 7 13 - - - - - - - 32.2 1011.3 0.0
26/02:30pm ESE 7 12 - - - - - - - 32.0 1011.5 0.0
26/02:00pm ESE 7 14 - - - - - - - 31.6 1011.8 0.0
26/01:30pm SE 8 13 - - - - - - - 31.5 1012.2 0.0
26/01:00pm SE 8 14 - - - - - - - 31.3 1012.7 0.0
26/12:30pm SE 8 12 - - - - - - - 31.0 1013.2 0.0
26/12:00pm ESE 10 17 - - - - - - - 30.7 1013.6 0.0
26/11:30am ESE 7 11 - - - - - - - 31.0 1013.7 0.0
26/11:00am E 8 12 - - - - - - - 30.7 1013.9 0.0
26/10:30am E 6 9 - - - - - - - 30.4 1014.0 0.0
26/10:00am E 7 10 - - - - - - - 29.5 1013.9 0.0
26/09:30am E 7 11 - - - - - - - 29.2 1013.9 0.0
26/09:00am E 4 8 - - - - - - - 28.8 1013.8 0.2
26/08:30am E 3 5 - - - - - - - 27.4 1013.7 0.2
26/08:00am E 4 5 - - - - - - - 25.1 1013.5 0.2
26/07:30am E 4 5 - - - - - - - 23.1 1013.3 0.2
26/07:00am E 5 6 - - - - - - - 23.3 1012.9 0.2
26/06:30am E 5 6 - - - - - - - 23.2 1012.8 0.2
26/06:00am E 5 6 - - - - - - - 22.7 1012.7 0.2
26/05:30am E 4 5 - - - - - - - 22.1 1012.5 0.2
26/05:00am E 4 5 - - - - - - - 22.7 1012.4 0.2
26/04:30am E 4 5 - - - - - - - 22.2 1012.1 0.2
26/04:00am SE 4 5 - - - - - - - 21.7 1011.9 0.2
26/03:30am SE 4 4 - - - - - - - 21.6 1011.9 0.2
26/03:00am SE 4 4 - - - - - - - 21.8 1011.9 0.2
26/02:30am SE 4 4 - - - - - - - 21.8 1012.2 0.2
26/02:00am SE 3 3 - - - - - - - 21.8 1012.4 0.2
26/01:30am SE 3 4 - - - - - - - 21.9 1012.5 0.2
26/01:00am CALM 0 0 - - - - - - - 21.9 1012.7 0.2
26/12:30am CALM 0 2 - - - - - - - 22.0 1012.8 0.2
26/12:00am SE 3 4 - - - - - - - 22.3 1012.9 0.2
 
Date/Time
CST
Wind Sea
Height
m
Swell Vis
km
Cloud Weather Temp
°C
Press
MSL
hPa
Rain since
9am
mm
Dir  Spd
kts
Gust
kts
Height
m
Period
s
Dir
25/11:30pm SE 4 4 - - - - - - - 22.4 1012.9 0.2
25/11:00pm ENE 3 3 - - - - - - - 22.5 1012.9 0.2
25/10:30pm ENE 3 4 - - - - - - - 22.8 1012.8 0.2
25/10:00pm ENE 4 5 - - - - - - - 23.1 1012.8 0.2
25/09:30pm ENE 4 5 - - - - - - - 23.8 1012.6 0.2
25/09:00pm ENE 4 5 - - - - - - - 25.0 1012.4 0.2
25/08:30pm E 5 6 - - - - - - - 24.0 1012.2 0.2
25/08:00pm CALM 0 0 - - - - - - - 24.2 1011.8 0.2
25/07:30pm CALM 0 0 - - - - - - - 24.9 1011.6 0.2
25/07:00pm CALM 0 0 - - - - - - - 26.0 1011.2 0.2
25/06:30pm ESE 1 3 - - - - - - - 28.0 1011.1 0.2
25/06:00pm ESE 3 6 - - - - - - - 30.0 1010.8 0.2
25/05:30pm E 5 9 - - - - - - - 30.9 1010.4 0.2
25/05:00pm ESE 5 9 - - - - - - - 31.6 1010.2 0.2
25/04:30pm ESE 7 13 - - - - - - - 31.8 1010.1 0.2
25/04:00pm ESE 7 11 - - - - - - - 31.7 1010.1 0.2
25/03:30pm SE 7 14 - - - - - - - 31.6 1010.3 0.2
25/03:00pm ESE 6 11 - - - - - - - 31.8 1010.6 0.2
25/02:30pm SE 7 11 - - - - - - - 32.2 1010.8 0.2
25/02:00pm ESE 7 15 - - - - - - - 31.9 1011.0 0.2
25/01:30pm SE 7 13 - - - - - - - 32.0 1011.5 0.2
25/01:00pm ESE 7 12 - - - - - - - 31.6 1012.1 0.2
25/12:30pm ESE 9 15 - - - - - - - 31.3 1012.6 0.2
25/12:00pm E 11 17 - - - - - - - 30.7 1013.0 0.2
25/11:30am ESE 8 15 - - - - - - - 30.0 1013.3 0.2
25/11:00am ESE 8 14 - - - - - - - 29.2 1013.6 0.2
25/10:30am E 7 12 - - - - - - - 28.3 1013.7 0.2
25/10:00am E 9 13 - - - - - - - 27.0 1013.8 0.2
25/09:30am E 5 7 - - - - - - - 26.0 1013.8 0.2
25/09:00am E 7 11 - - - - - - - 26.5 1014.0 0.0
25/08:30am E 4 6 - - - - - - - 26.5 1013.3 0.0
25/08:00am ESE 3 5 - - - - - - - 25.6 1013.0 0.0
25/07:30am ESE 4 5 - - - - - - - 25.1 1012.8 0.0
25/07:00am ESE 5 7 - - - - - - - 25.0 1012.3 0.0
25/06:30am E 5 7 - - - - - - - 24.5 1012.1 0.0
25/06:00am E 4 5 - - - - - - - 23.5 1012.0 0.0
25/05:30am ESE 3 4 - - - - - - - 24.3 1011.9 0.0
25/05:00am ESE 4 5 - - - - - - - 24.8 1011.7 0.0
25/04:30am ESE 3 4 - - - - - - - 24.2 1011.7 0.0
25/04:00am ESE 5 5 - - - - - - - 23.8 1011.6 0.0
25/03:30am ESE 4 5 - - - - - - - 23.8 1011.7 0.0
25/03:00am ESE 4 5 - - - - - - - 23.7 1011.8 0.0
25/02:30am ESE 4 5 - - - - - - - 23.3 1011.9 0.0
25/02:00am ESE 4 6 - - - - - - - 23.5 1012.0 0.0
25/01:30am SSE 3 5 - - - - - - - 23.3 1012.2 0.0
25/01:00am SSE 4 5 - - - - - - - 23.8 1012.4 0.0
25/12:30am ESE 4 5 - - - - - - - 23.7 1012.3 0.0
25/12:00am E 4 5 - - - - - - - 24.0 1012.3 0.0
 
Date/Time
CST
Wind Sea
Height
m
Swell Vis
km
Cloud Weather Temp
°C
Press
MSL
hPa
Rain since
9am
mm
Dir  Spd
kts
Gust
kts
Height
m
Period
s
Dir
24/11:30pm E 4 5 - - - - - - - 24.7 1012.5 0.0
24/11:00pm ENE 5 6 - - - - - - - 25.3 1012.4 0.0
24/10:30pm E 4 5 - - - - - - - 26.2 1012.3 0.0
24/10:00pm ENE 4 5 - - - - - - - 26.8 1012.3 0.0
24/09:30pm E 4 5 - - - - - - - 26.7 1012.3 0.0
24/09:00pm ESE 4 5 - - - - - - - 26.6 1012.1 0.0
24/08:30pm ESE 3 5 - - - - - - - 26.9 1011.7 0.0
24/08:00pm SE 1 5 - - - - - - - 26.4 1011.3 0.0
24/07:30pm ESE 3 6 - - - - - - - 27.2 1010.8 0.0
24/07:00pm SE 4 6 - - - - - - - 27.1 1010.5 0.0
24/06:30pm CALM 0 4 - - - - - - - 27.8 1010.2 0.0
24/06:00pm E 5 7 - - - - - - - 28.8 1009.9 0.0
24/05:30pm ESE 5 10 - - - - - - - 29.8 1009.9 0.0
24/05:00pm ESE 4 7 - - - - - - - 29.0 1009.7 0.0
24/04:30pm SE 5 7 - - - - - - - 29.1 1009.4 0.0
24/04:00pm ESE 5 9 - - - - - - - 29.4 1009.4 0.0
24/03:30pm SE 7 13 - - - - - - - 30.1 1009.4 0.0
24/03:00pm ESE 6 10 - - - - - - - 30.5 1009.6 0.0
24/02:30pm SE 7 11 - - - - - - - 31.1 1009.7 0.0
24/02:00pm ESE 9 12 - - - - - - - 31.3 1010.0 0.0
24/01:30pm SE 8 12 - - - - - - - 30.9 1010.5 0.0
24/01:00pm ESE 7 15 - - - - - - - 30.8 1010.9 0.0
24/12:30pm ESE 6 11 - - - - - - - 31.6 1011.2 0.0
24/12:00pm ESE 9 14 - - - - - - - 30.2 1011.5 0.0
24/11:30am SE 8 12 - - - - - - - 30.2 1012.0 0.0
24/11:00am ESE 9 15 - - - - - - - 29.8 1012.2 0.0
24/10:30am ESE 9 15 - - - - - - - 29.4 1012.3 0.0
24/10:00am SE 7 13 - - - - - - - 29.6 1012.3 0.0
24/09:30am E 4 7 - - - - - - - 27.4 1012.5 0.0
24/09:00am E 5 7 - - - - - - - 27.0 1012.2 0.0
24/08:30am ESE 5 7 - - - - - - - 26.8 1011.8 0.0
24/08:00am ESE 3 5 - - - - - - - 24.8 1011.6 0.0
24/07:30am ESE 4 5 - - - - - - - 22.7 1011.5 0.0
24/07:00am ESE 4 6 - - - - - - - 22.5 1011.2 0.0
24/06:30am ESE 4 5 - - - - - - - 22.4 1011.1 0.0
24/06:00am ESE 3 5 - - - - - - - 22.4 1011.1 0.0
24/05:30am ESE 3 4 - - - - - - - 22.4 1011.0 0.0
24/05:00am ESE 3 4 - - - - - - - 22.8 1011.2 0.0
24/04:30am SE 5 7 - - - - - - - 22.7 1011.1 0.0
24/04:00am E 4 6 - - - - - - - 22.3 1011.1 0.0
24/03:30am ENE 4 5 - - - - - - - 21.4 1011.2 0.0
24/03:00am ENE 4 4 - - - - - - - 21.2 1011.3 0.0
24/02:30am ENE 4 4 - - - - - - - 21.1 1011.5 0.0
24/02:00am ENE 5 5 - - - - - - - 21.4 1011.6 0.0
24/01:30am ENE 4 5 - - - - - - - 21.6 1011.9 0.0
24/01:00am ENE 4 5 - - - - - - - 21.7 1012.0 0.0

Other formats

Comma delimited format used in spreadsheet applications
http://www.bom.gov.au/fwo/IDD60701/IDD60701.94122.axf

JavaScript Object Notation format (JSON) in row-major order
http://www.bom.gov.au/fwo/IDD60701/IDD60701.94122.json

Data quality

Most of these data are generated automatically and are frequently updated. Quality checks on data are not normally performed. It is possible for incorrect values to appear. Refer to information at About Latest Weather Observations and please check the disclaimer before using these data.